Time;durP1;ratioP1;P1;durP2;ratioP2;P2;SDS_P1;SDS_P2;PMS_P1;PMS_P2;Temp;Humidity;BMP_temperature;BMP_pressure;BME280_temperature;BME280_humidity;BME280_pressure;Samples;Min_cycle;Max_cycle;Signal;HPM_P1;HPM_P2
2021/09/11 00:02:11;;;;;;;9.50;5.20;;;;;;;18.87;93.80;100764.92;110959;1198;61924;-83
2021/09/11 00:04:39;;;;;;;5.70;4.70;;;;;;;18.83;93.98;100766.02;111076;1198;61849;-81
2021/09/11 00:07:05;;;;;;;7.60;5.20;;;;;;;18.79;94.07;100765.39;111167;1205;70005;-81
2021/09/11 00:09:32;;;;;;;7.20;5.50;;;;;;;18.75;94.41;100765.27;110976;1206;61901;-81
2021/09/11 00:11:58;;;;;;;9.20;6.00;;;;;;;18.72;94.47;100764.67;110933;1199;62744;-81
2021/09/11 00:14:25;;;;;;;6.30;5.60;;;;;;;18.70;94.63;100763.63;111007;1206;61796;-81
2021/09/11 00:16:51;;;;;;;8.20;5.80;;;;;;;18.68;95.12;100762.80;110944;1206;61896;-82
2021/09/11 00:19:18;;;;;;;7.30;5.80;;;;;;;18.65;95.42;100761.98;110843;1205;61962;-81
2021/09/11 00:21:44;;;;;;;8.20;6.60;;;;;;;18.63;95.80;100763.91;110604;1206;62719;-82
2021/09/11 00:24:11;;;;;;;10.60;6.80;;;;;;;18.59;95.90;100764.56;110599;1206;61901;-81
2021/09/11 00:26:38;;;;;;;8.40;6.90;;;;;;;18.56;96.21;100764.68;110739;1206;62735;-82
2021/09/11 00:29:06;;;;;;;7.80;6.40;;;;;;;18.53;96.24;100761.13;110670;1199;76365;-81
2021/09/11 00:31:33;;;;;;;9.20;6.50;;;;;;;18.52;96.45;100759.79;110711;1206;72215;-81
2021/09/11 00:34:01;;;;;;;26.80;7.40;;;;;;;18.50;96.55;100755.38;110842;1206;73617;-82
2021/09/11 00:36:29;;;;;;;7.80;6.20;;;;;;;18.50;96.58;100751.51;110790;1206;61896;-81
2021/09/11 00:38:55;;;;;;;7.60;6.50;;;;;;;18.49;96.70;100750.53;110700;1206;62759;-81
2021/09/11 00:41:22;;;;;;;9.60;6.80;;;;;;;18.48;96.91;100753.71;110652;1199;76142;-80
2021/09/11 00:43:50;;;;;;;10.50;7.20;;;;;;;18.45;96.92;100755.89;110795;1206;71610;-82
2021/09/11 00:46:17;;;;;;;8.20;6.70;;;;;;;18.44;97.16;100756.95;110996;1206;72591;-82
2021/09/11 00:48:44;;;;;;;9.90;6.80;;;;;;;18.43;97.07;100756.10;110897;1206;61822;-82
2021/09/11 00:51:13;;;;;;;9.10;6.80;;;;;;;18.42;97.11;100758.70;110673;1206;61877;-85
2021/09/11 00:53:41;;;;;;;9.00;7.30;;;;;;;18.41;97.57;100757.70;110981;1206;75511;-81
2021/09/11 00:56:08;;;;;;;10.80;7.10;;;;;;;18.39;97.77;100756.02;110888;1200;69998;-82
2021/09/11 00:58:34;;;;;;;8.30;6.50;;;;;;;18.37;97.89;100752.86;110891;1205;73600;-82
2021/09/11 01:01:01;;;;;;;7.80;5.00;;;;;;;18.34;98.21;100751.11;110778;1206;61897;-81
2021/09/11 01:03:28;;;;;;;9.20;6.10;;;;;;;18.31;98.18;100751.52;110773;1206;61823;-83
2021/09/11 01:05:55;;;;;;;7.10;4.70;;;;;;;18.29;98.37;100750.60;110883;1206;77983;-82
2021/09/11 01:08:21;;;;;;;5.60;4.40;;;;;;;18.26;98.31;100747.20;110623;1206;61875;-83
2021/09/11 01:10:48;;;;;;;6.50;5.60;;;;;;;18.25;98.01;100749.10;110617;1207;61990;-81
2021/09/11 01:13:14;;;;;;;8.70;5.30;;;;;;;18.23;98.21;100748.96;110774;1199;61899;-81
2021/09/11 01:15:43;;;;;;;6.30;4.20;;;;;;;18.21;98.21;100745.36;110809;1206;61811;-82
2021/09/11 01:18:10;;;;;;;7.50;4.20;;;;;;;18.18;98.23;100749.48;110894;1199;75412;-82
2021/09/11 01:20:39;;;;;;;6.60;4.00;;;;;;;18.16;98.20;100747.80;112112;1206;72016;-81
2021/09/11 01:23:06;;;;;;;6.70;4.10;;;;;;;18.14;98.07;100747.88;111150;1206;72716;-81
2021/09/11 01:25:33;;;;;;;5.30;4.30;;;;;;;18.13;98.09;100753.75;110963;1206;61918;-81
2021/09/11 01:27:59;;;;;;;6.90;4.00;;;;;;;18.12;98.19;100752.84;110965;1200;61820;-81
2021/09/11 01:30:26;;;;;;;7.00;4.90;;;;;;;18.09;98.23;100751.10;110611;1200;75239;-82
2021/09/11 01:32:52;;;;;;;5.80;4.20;;;;;;;18.08;98.23;100753.85;110617;1206;61914;-82
2021/09/11 01:35:19;;;;;;;8.20;4.90;;;;;;;18.06;98.16;100755.15;110564;1206;61909;-82
2021/09/11 01:37:46;;;;;;;9.40;5.30;;;;;;;18.04;98.45;100756.79;110779;1199;62044;-81
2021/09/11 01:40:13;;;;;;;5.50;4.30;;;;;;;18.02;98.63;100757.80;110749;1207;61855;-81
2021/09/11 01:42:40;;;;;;;6.80;4.70;;;;;;;17.99;98.84;100756.86;110808;1205;75417;-82
2021/09/11 01:45:15;;;;;;;5.80;4.10;;;;;;;17.96;98.98;100757.67;110896;1206;70976;-79
2021/09/11 01:47:43;;;;;;;6.60;4.30;;;;;;;17.93;99.03;100758.45;110898;1200;74270;-81
2021/09/11 01:50:13;;;;;;;7.50;3.90;;;;;;;17.91;99.29;100762.91;110901;1206;62483;-80
2021/09/11 01:52:40;;;;;;;6.40;4.80;;;;;;;17.88;99.15;100763.63;110939;1199;61878;-82
2021/09/11 01:55:09;;;;;;;6.40;4.90;;;;;;;17.88;99.26;100760.50;110859;1206;76260;-81
2021/09/11 01:57:40;;;;;;;6.60;4.90;;;;;;;17.86;99.32;100762.38;110920;1199;69997;-81
2021/09/11 02:00:13;;;;;;;6.40;4.20;;;;;;;17.86;99.34;100762.75;110893;1200;72568;-80
2021/09/11 02:02:39;;;;;;;6.60;5.00;;;;;;;17.86;99.43;100763.45;110740;1199;62109;-80
2021/09/11 02:05:08;;;;;;;5.30;4.30;;;;;;;17.85;99.62;100763.86;110871;1206;61867;-80
2021/09/11 02:07:35;;;;;;;5.90;4.30;;;;;;;17.85;99.63;100766.48;111187;1199;75428;-80
2021/09/11 02:10:06;;;;;;;7.30;5.00;;;;;;;17.84;99.50;100766.35;110982;1200;71984;-80
2021/09/11 02:12:33;;;;;;;7.10;5.10;;;;;;;17.83;99.63;100767.77;111104;1199;72641;-81
2021/09/11 02:15:00;;;;;;;6.50;4.70;;;;;;;17.82;99.73;100775.41;110874;1207;63148;-81
2021/09/11 02:17:26;;;;;;;6.40;4.60;;;;;;;17.81;99.67;100773.45;110855;1199;62299;-80
2021/09/11 02:19:53;;;;;;;6.80;4.00;;;;;;;17.80;99.78;100776.39;110614;1206;76367;-81
2021/09/11 02:22:19;;;;;;;7.90;5.00;;;;;;;17.81;100.00;100778.09;110940;1206;61961;-80
2021/09/11 02:24:46;;;;;;;6.50;5.00;;;;;;;17.83;99.98;100778.50;110890;1206;63000;-79
2021/09/11 02:27:12;;;;;;;6.00;4.10;;;;;;;17.85;100.00;100773.83;110869;1206;61920;-79
2021/09/11 02:29:39;;;;;;;6.40;5.10;;;;;;;17.87;99.99;100775.11;110897;1200;61809;-82
2021/09/11 02:32:06;;;;;;;7.10;5.30;;;;;;;17.89;100.00;100774.77;111019;1206;62500;-81
2021/09/11 02:34:32;;;;;;;8.10;5.30;;;;;;;17.91;99.99;100777.73;110929;1200;70816;-80
2021/09/11 02:37:00;;;;;;;9.50;5.80;;;;;;;17.92;100.00;100777.17;110975;1206;73914;-79
2021/09/11 02:39:27;;;;;;;8.50;6.20;;;;;;;17.92;100.00;100777.27;110851;1206;62683;-81
2021/09/11 02:41:53;;;;;;;9.90;6.10;;;;;;;17.90;100.00;100772.08;111271;1200;62273;-79
2021/09/11 02:44:20;;;;;;;10.30;6.80;;;;;;;17.88;99.99;100772.75;110813;1206;75305;-80
2021/09/11 02:46:46;;;;;;;8.70;6.60;;;;;;;17.85;100.00;100773.03;110674;1206;70730;-81
2021/09/11 02:49:13;;;;;;;8.30;6.50;;;;;;;17.82;100.00;100771.73;110660;1205;61886;-81
2021/09/11 02:51:39;;;;;;;8.90;7.30;;;;;;;17.78;100.00;100766.89;110668;1206;61910;-82
2021/09/11 02:54:06;;;;;;;10.20;7.30;;;;;;;17.74;100.00;100766.74;110783;1200;61935;-82
2021/09/11 02:56:33;;;;;;;13.10;8.30;;;;;;;17.69;100.00;100763.48;110771;1207;76395;-82
2021/09/11 02:58:59;;;;;;;11.90;8.20;;;;;;;17.65;100.00;100764.92;110748;1201;62022;-83
2021/09/11 03:01:26;;;;;;;11.40;7.40;;;;;;;17.62;100.00;100764.13;111137;1199;72504;-82
2021/09/11 03:03:53;;;;;;;12.40;8.50;;;;;;;17.59;100.00;100769.10;111043;1206;61899;-82
2021/09/11 03:06:20;;;;;;;13.30;8.90;;;;;;;17.55;100.00;100772.03;111175;1200;61771;-83
2021/09/11 03:08:46;;;;;;;11.90;8.00;;;;;;;17.51;100.00;100771.77;110897;1199;62777;-81
2021/09/11 03:11:13;;;;;;;14.30;9.10;;;;;;;17.48;100.00;100769.40;110903;1205;61906;-82
2021/09/11 03:13:42;;;;;;;11.60;8.20;;;;;;;17.43;100.00;100768.73;110865;1205;72578;-82
2021/09/11 03:16:09;;;;;;;11.30;9.20;;;;;;;17.40;100.00;100765.63;110866;1201;62050;-80
2021/09/11 03:18:37;;;;;;;12.00;9.20;;;;;;;17.37;100.00;100766.85;110814;1206;61881;-81
2021/09/11 03:21:03;;;;;;;12.40;9.50;;;;;;;17.34;100.00;100762.10;110819;1206;76669;-80
2021/09/11 03:23:30;;;;;;;15.70;9.00;;;;;;;17.32;100.00;100763.96;110756;1206;61819;-82
2021/09/11 03:25:56;;;;;;;11.10;9.00;;;;;;;17.30;100.00;100757.63;110638;1206;61897;-80
2021/09/11 03:28:23;;;;;;;15.60;10.00;;;;;;;17.28;100.00;100756.07;110713;1206;61899;-82
2021/09/11 03:30:49;;;;;;;14.70;9.40;;;;;;;17.27;100.00;100758.23;110814;1206;61866;-81
2021/09/11 03:33:16;;;;;;;13.00;9.10;;;;;;;17.27;100.00;100758.10;110715;1206;75423;-80
2021/09/11 03:35:44;;;;;;;13.40;9.30;;;;;;;17.24;100.00;100758.81;110811;1206;71140;-80
2021/09/11 03:38:10;;;;;;;15.10;9.70;;;;;;;17.22;100.00;100757.06;110524;1201;74085;-81
2021/09/11 03:40:37;;;;;;;11.80;8.60;;;;;;;17.18;100.00;100757.50;110578;1206;61835;-81
2021/09/11 03:43:03;;;;;;;12.80;9.10;;;;;;;17.16;100.00;100758.46;110630;1206;61873;-81
2021/09/11 03:45:30;;;;;;;13.50;9.50;;;;;;;17.14;100.00;100757.62;110898;1206;61841;-81
2021/09/11 03:47:57;;;;;;;14.30;9.10;;;;;;;17.12;100.00;100763.89;110767;1206;61932;-82
2021/09/11 03:50:23;;;;;;;11.40;8.80;;;;;;;17.09;100.00;100762.83;110582;1206;72523;-81
2021/09/11 03:52:50;;;;;;;13.20;9.40;;;;;;;17.06;100.00;100761.82;110651;1206;61886;-81
2021/09/11 03:55:17;;;;;;;13.80;9.20;;;;;;;17.05;100.00;100768.15;110704;1206;61981;-83
2021/09/11 03:57:44;;;;;;;14.50;9.70;;;;;;;17.03;100.00;100763.79;110706;1206;61859;-81
2021/09/11 04:00:11;;;;;;;15.80;9.40;;;;;;;17.01;100.00;100760.84;111041;1206;61961;-82
2021/09/11 04:02:38;;;;;;;17.00;11.30;;;;;;;17.00;100.00;100764.14;110788;1206;74331;-81
2021/09/11 04:05:05;;;;;;;16.30;10.00;;;;;;;16.99;100.00;100764.27;111291;1200;61989;-81
2021/09/11 04:07:32;;;;;;;13.00;9.50;;;;;;;16.98;100.00;100766.04;110615;1206;61890;-81
2021/09/11 04:09:59;;;;;;;12.90;9.70;;;;;;;16.98;100.00;100772.31;110563;1201;76481;-81
2021/09/11 04:12:26;;;;;;;15.40;10.60;;;;;;;16.96;100.00;100774.19;110638;1206;70760;-79
2021/09/11 04:14:55;;;;;;;12.10;9.00;;;;;;;16.95;100.00;100774.39;110649;1206;61896;-80
2021/09/11 04:17:22;;;;;;;13.80;10.40;;;;;;;16.96;100.00;100776.04;110577;1200;62751;-79
2021/09/11 04:19:48;;;;;;;14.60;10.80;;;;;;;16.95;100.00;100776.82;110738;1201;61789;-81
2021/09/11 04:22:15;;;;;;;15.00;10.90;;;;;;;16.95;100.00;100774.67;110716;1206;76562;-82
2021/09/11 04:24:41;;;;;;;14.50;10.00;;;;;;;16.95;100.00;100775.05;110682;1201;62741;-81
2021/09/11 04:27:08;;;;;;;16.70;11.30;;;;;;;16.93;100.00;100779.06;110643;1206;61875;-83
2021/09/11 04:29:34;;;;;;;17.60;11.40;;;;;;;16.91;100.00;100777.58;110702;1200;61928;-81
2021/09/11 04:32:01;;;;;;;14.90;10.70;;;;;;;16.89;100.00;100775.54;110791;1206;61891;-82
2021/09/11 04:34:27;;;;;;;16.80;11.80;;;;;;;16.87;100.00;100777.04;110790;1206;61896;-81
2021/09/11 04:36:54;;;;;;;17.50;12.70;;;;;;;16.87;100.00;100775.95;110629;1206;61897;-81
2021/09/11 04:39:20;;;;;;;17.90;12.40;;;;;;;16.87;100.00;100775.23;110629;1206;61909;-81
2021/09/11 04:41:47;;;;;;;16.70;11.70;;;;;;;16.87;100.00;100775.05;110582;1206;61816;-82
2021/09/11 04:44:13;;;;;;;18.80;11.50;;;;;;;16.87;100.00;100776.13;110709;1206;61905;-81
2021/09/11 04:46:40;;;;;;;17.50;12.40;;;;;;;16.87;100.00;100778.52;110510;1206;62416;-81
2021/09/11 04:49:06;;;;;;;16.20;11.30;;;;;;;16.87;100.00;100779.71;110822;1206;61912;-82
2021/09/11 04:51:33;;;;;;;17.30;12.10;;;;;;;16.87;100.00;100777.73;110876;1200;61861;-81
2021/09/11 04:53:59;;;;;;;18.30;12.50;;;;;;;16.88;100.00;100780.27;110816;1198;61933;-82
2021/09/11 04:56:26;;;;;;;17.70;12.80;;;;;;;16.90;100.00;100781.84;110792;1206;61897;-82
2021/09/11 04:58:52;;;;;;;19.90;12.60;;;;;;;16.91;100.00;100783.44;110704;1205;61874;-81
2021/09/11 05:01:19;;;;;;;17.50;11.60;;;;;;;16.94;100.00;100781.31;110773;1206;61907;-81
2021/09/11 05:03:46;;;;;;;15.40;11.10;;;;;;;16.96;100.00;100780.65;110848;1206;72524;-81
2021/09/11 05:06:13;;;;;;;19.90;13.20;;;;;;;16.97;100.00;100781.55;110811;1206;62190;-83
2021/09/11 05:08:40;;;;;;;18.40;11.90;;;;;;;16.97;100.00;100784.89;110752;1206;61858;-80
2021/09/11 05:11:07;;;;;;;16.30;11.30;;;;;;;16.98;100.00;100781.63;110581;1201;61819;-80
2021/09/11 05:13:34;;;;;;;14.50;10.70;;;;;;;16.98;100.00;100784.23;110622;1206;71125;-79
2021/09/11 05:16:01;;;;;;;15.90;11.20;;;;;;;16.99;100.00;100785.05;110701;1207;72512;-79
2021/09/11 05:18:27;;;;;;;16.50;11.60;;;;;;;16.99;100.00;100782.52;110814;1206;61838;-80
2021/09/11 05:20:54;;;;;;;17.00;11.70;;;;;;;17.02;100.00;100785.20;111090;1200;61809;-80
2021/09/11 05:23:21;;;;;;;16.40;10.90;;;;;;;17.05;100.00;100783.16;110908;1206;76293;-81
2021/09/11 05:25:47;;;;;;;20.60;12.50;;;;;;;17.06;100.00;100781.53;110840;1201;71979;-81
2021/09/11 05:28:14;;;;;;;18.70;12.80;;;;;;;17.08;100.00;100782.97;110818;1206;61909;-81
2021/09/11 05:30:40;;;;;;;16.50;11.20;;;;;;;17.13;100.00;100788.46;110914;1206;61845;-81
2021/09/11 05:33:07;;;;;;;17.30;11.60;;;;;;;17.16;100.00;100785.52;110821;1206;62481;-81
2021/09/11 05:35:33;;;;;;;17.90;11.70;;;;;;;17.20;100.00;100781.73;110857;1206;61941;-80
2021/09/11 05:37:59;;;;;;;23.90;11.30;;;;;;;17.25;100.00;100784.84;110960;1206;61895;-81
2021/09/11 05:40:26;;;;;;;16.80;10.20;;;;;;;17.30;100.00;100788.08;110934;1206;62506;-80
2021/09/11 05:42:52;;;;;;;18.30;11.70;;;;;;;17.35;100.00;100792.36;110864;1206;61923;-81
2021/09/11 05:45:20;;;;;;;12.50;9.10;;;;;;;17.41;100.00;100791.23;110901;1206;61935;-80
2021/09/11 05:47:46;;;;;;;13.70;9.60;;;;;;;17.47;100.00;100793.30;111033;1198;76465;-81
2021/09/11 05:50:13;;;;;;;16.20;10.00;;;;;;;17.53;100.00;100796.30;110963;1206;71411;-81
2021/09/11 05:52:40;;;;;;;15.50;9.90;;;;;;;17.60;100.00;100796.50;111013;1206;72702;-83
2021/09/11 05:55:07;;;;;;;14.40;8.90;;;;;;;17.66;100.00;100795.58;110924;1207;62088;-83
2021/09/11 05:57:33;;;;;;;12.10;8.90;;;;;;;17.72;100.00;100801.80;110782;1202;62804;-82
2021/09/11 06:00:00;;;;;;;14.90;9.10;;;;;;;17.80;99.98;100801.21;110850;1206;61895;-83
2021/09/11 06:02:26;;;;;;;14.00;8.90;;;;;;;17.86;99.82;100800.59;110854;1205;61790;-82
2021/09/11 06:04:53;;;;;;;11.30;8.50;;;;;;;17.93;99.34;100802.59;110944;1206;72311;-83
2021/09/11 06:07:20;;;;;;;13.80;9.00;;;;;;;18.01;99.10;100806.24;110897;1207;61841;-82
2021/09/11 06:09:47;;;;;;;12.10;8.10;;;;;;;18.07;98.61;100805.16;110876;1206;64045;-82
2021/09/11 06:12:13;;;;;;;10.30;6.00;;;;;;;18.13;98.49;100807.53;110888;1207;61978;-82
2021/09/11 06:14:40;;;;;;;9.40;5.90;;;;;;;18.18;98.02;100808.55;110819;1206;73088;-82
2021/09/11 06:17:08;;;;;;;7.00;5.50;;;;;;;18.23;97.73;100808.25;110725;1198;72601;-74
2021/09/11 06:19:36;;;;;;;9.70;5.90;;;;;;;18.29;97.58;100815.17;111133;1206;61970;-74
2021/09/11 06:22:04;;;;;;;8.30;5.00;;;;;;;18.36;97.25;100813.44;110603;1206;61813;-75
2021/09/11 06:24:30;;;;;;;9.30;5.90;;;;;;;18.45;96.93;100814.66;110670;1206;75496;-73
2021/09/11 06:26:57;;;;;;;7.10;4.80;;;;;;;18.52;96.71;100814.66;110646;1206;71010;-73
2021/09/11 06:29:23;;;;;;;8.60;5.80;;;;;;;18.61;96.41;100814.03;110595;1207;61910;-75
2021/09/11 06:31:50;;;;;;;10.80;6.70;;;;;;;18.73;96.22;100817.20;110532;1206;61891;-75
2021/09/11 06:34:16;;;;;;;10.30;6.40;;;;;;;18.86;94.93;100820.77;110618;1200;62747;-75
2021/09/11 06:36:43;;;;;;;10.10;6.50;;;;;;;18.94;94.23;100822.08;111070;1206;61877;-73
2021/09/11 06:39:10;;;;;;;7.30;5.90;;;;;;;19.01;93.09;100821.40;110575;1207;70185;-74
2021/09/11 06:41:36;;;;;;;6.50;5.50;;;;;;;19.04;92.85;100822.48;110583;1205;61847;-75
2021/09/11 06:44:03;;;;;;;6.00;4.40;;;;;;;19.07;92.60;100821.03;110472;1206;61902;-75
2021/09/11 06:46:30;;;;;;;9.00;5.60;;;;;;;19.10;92.54;100823.34;110466;1207;61970;-73
2021/09/11 06:48:56;;;;;;;7.60;5.50;;;;;;;19.13;92.13;100820.45;110918;1206;75151;-75
2021/09/11 06:51:23;;;;;;;6.90;4.50;;;;;;;19.14;91.58;100818.48;110594;1206;61889;-74
2021/09/11 06:53:52;;;;;;;7.30;5.40;;;;;;;19.17;91.64;100820.98;110504;1206;61895;-76
2021/09/11 06:56:19;;;;;;;10.10;7.00;;;;;;;19.23;91.77;100821.34;110622;1206;63205;-75
2021/09/11 06:58:45;;;;;;;8.20;6.50;;;;;;;19.29;91.29;100825.31;110631;1206;61922;-74
2021/09/11 07:01:12;;;;;;;8.80;6.00;;;;;;;19.37;91.53;100824.27;110693;1206;63046;-75
2021/09/11 07:03:40;;;;;;;11.90;8.30;;;;;;;19.47;90.61;100828.64;110620;1206;70662;-74
2021/09/11 07:06:11;;;;;;;13.40;8.50;;;;;;;19.54;89.86;100829.63;110570;1206;72514;-73
2021/09/11 07:08:38;;;;;;;10.90;6.80;;;;;;;19.60;89.20;100833.37;110681;1206;61847;-74
2021/09/11 07:11:10;;;;;;;10.90;7.30;;;;;;;19.64;88.81;100834.66;110569;1207;61878;-75
2021/09/11 07:13:37;;;;;;;10.50;7.30;;;;;;;19.69;88.84;100839.03;110567;1206;75304;-74
2021/09/11 07:16:04;;;;;;;7.00;4.90;;;;;;;19.75;89.07;100840.77;110554;1206;72013;-75
2021/09/11 07:18:31;;;;;;;9.10;5.50;;;;;;;19.75;88.12;100843.98;110598;1206;73026;-74
2021/09/11 07:20:57;;;;;;;10.20;8.00;;;;;;;19.73;87.80;100848.26;110848;1206;61883;-75
2021/09/11 07:23:24;;;;;;;14.50;8.60;;;;;;;19.68;87.85;100851.13;110886;1200;61886;-75
2021/09/11 07:25:50;;;;;;;9.90;7.20;;;;;;;19.63;87.85;100849.91;110503;1206;75032;-73
2021/09/11 07:28:17;;;;;;;12.00;7.90;;;;;;;19.64;88.14;100847.13;110557;1204;61809;-74
2021/09/11 07:30:43;;;;;;;11.60;8.10;;;;;;;19.69;87.77;100857.45;110626;1207;61886;-74
2021/09/11 07:33:10;;;;;;;12.90;7.80;;;;;;;19.70;87.33;100852.06;110649;1206;61870;-76
2021/09/11 07:35:37;;;;;;;13.00;8.40;;;;;;;19.70;87.23;100856.45;110787;1206;61886;-75
2021/09/11 07:38:03;;;;;;;14.30;8.80;;;;;;;19.69;87.28;100857.16;110645;1199;76502;-76
2021/09/11 07:40:30;;;;;;;8.70;5.80;;;;;;;19.68;86.92;100861.34;110532;1207;72164;-74
2021/09/11 07:42:56;;;;;;;12.40;9.60;;;;;;;19.67;86.87;100859.02;110659;1207;72029;-75
2021/09/11 07:45:23;;;;;;;13.90;8.90;;;;;;;19.72;86.89;100858.87;110518;1207;62053;-74
2021/09/11 07:47:49;;;;;;;12.60;8.40;;;;;;;19.81;86.65;100860.89;110555;1199;61901;-73
2021/09/11 07:50:16;;;;;;;10.40;8.20;;;;;;;19.92;86.47;100862.11;110566;1207;61799;-73
2021/09/11 07:52:48;;;;;;;9.70;6.30;;;;;;;20.09;85.89;100859.75;110680;1206;72107;-74
2021/09/11 07:55:15;;;;;;;10.60;7.70;;;;;;;20.28;85.10;100855.73;110799;1207;71292;-74
2021/09/11 07:57:42;;;;;;;11.10;7.70;;;;;;;20.36;83.75;100859.94;110547;1206;61900;-74
2021/09/11 08:00:09;;;;;;;12.50;8.90;;;;;;;20.42;83.76;100861.48;110622;1207;61938;-74
2021/09/11 08:02:35;;;;;;;10.00;6.90;;;;;;;20.51;84.27;100862.09;110821;1206;75553;-74
2021/09/11 08:05:03;;;;;;;15.00;9.10;;;;;;;20.64;83.53;100867.30;110725;1206;70710;-73
2021/09/11 08:07:29;;;;;;;10.40;8.00;;;;;;;20.76;82.09;100870.35;110643;1207;72518;-74
2021/09/11 08:09:56;;;;;;;13.60;9.20;;;;;;;20.90;81.67;100877.06;110660;1206;61796;-74
2021/09/11 08:12:22;;;;;;;11.40;7.10;;;;;;;20.98;79.59;100877.23;110411;1201;61858;-75
2021/09/11 08:14:49;;;;;;;11.50;9.00;;;;;;;21.02;78.86;100876.33;110646;1206;61904;-74
2021/09/11 08:17:16;;;;;;;13.30;8.50;;;;;;;20.99;78.94;100881.98;110549;1208;72555;-75
2021/09/11 08:19:42;;;;;;;9.90;7.50;;;;;;;20.87;78.73;100883.84;110596;1207;62590;-73
2021/09/11 08:22:09;;;;;;;10.20;6.70;;;;;;;20.79;79.38;100881.36;110674;1206;61921;-75
2021/09/11 08:24:35;;;;;;;11.30;8.70;;;;;;;20.74;79.37;100890.58;110600;1201;61900;-75
2021/09/11 08:27:02;;;;;;;13.20;8.10;;;;;;;20.67;79.27;100889.15;110771;1207;62711;-74
2021/09/11 08:29:28;;;;;;;14.10;9.00;;;;;;;20.58;79.34;100887.48;110742;1206;71900;-74
2021/09/11 08:31:55;;;;;;;11.40;9.40;;;;;;;20.56;79.80;100890.01;110739;1206;61885;-74
2021/09/11 08:34:21;;;;;;;11.10;8.20;;;;;;;20.54;79.89;100891.75;110764;1206;61894;-74
2021/09/11 08:36:48;;;;;;;11.40;8.90;;;;;;;20.52;79.86;100891.14;110720;1207;61861;-74
2021/09/11 08:39:24;;;;;;;11.10;7.70;;;;;;;20.49;78.70;100898.75;110772;1206;75239;-75
2021/09/11 08:41:52;;;;;;;10.80;7.50;;;;;;;20.49;78.68;100896.66;110864;1206;72136;-76
2021/09/11 08:44:19;;;;;;;11.10;8.90;;;;;;;20.55;78.39;100896.63;110768;1207;72245;-76
2021/09/11 08:46:48;;;;;;;10.10;7.90;;;;;;;20.62;78.21;100898.24;110737;1207;61883;-76
2021/09/11 08:49:16;;;;;;;10.20;7.50;;;;;;;20.67;78.32;100904.40;110773;1206;61845;-75
2021/09/11 08:51:43;;;;;;;10.40;7.60;;;;;;;20.81;78.43;100905.08;110761;1206;74548;-75
2021/09/11 08:54:09;;;;;;;8.90;6.10;;;;;;;20.94;77.00;100910.34;110743;1206;71091;-76
2021/09/11 08:56:41;;;;;;;11.20;7.40;;;;;;;20.99;76.40;100909.81;110823;1203;73728;-74
2021/09/11 08:59:09;;;;;;;8.90;7.90;;;;;;;20.97;75.66;100916.95;110749;1206;61944;-74
2021/09/11 09:01:36;;;;;;;9.30;8.10;;;;;;;20.94;75.97;100918.02;110787;1207;62017;-74
2021/09/11 09:04:05;;;;;;;9.20;8.00;;;;;;;20.89;76.40;100918.08;110760;1208;77061;-75
2021/09/11 09:06:37;;;;;;;10.90;6.40;;;;;;;20.86;76.13;100919.45;110917;1204;71242;-75
2021/09/11 09:09:12;;;;;;;9.10;7.10;;;;;;;20.87;75.74;100918.40;110858;1206;61877;-74
2021/09/11 09:11:44;;;;;;;10.10;7.50;;;;;;;20.85;75.93;100915.23;110853;1207;61870;-74
2021/09/11 09:14:17;;;;;;;7.20;5.60;;;;;;;20.87;75.76;100913.30;110952;1207;61892;-75
2021/09/11 09:16:47;;;;;;;10.40;7.50;;;;;;;20.90;75.67;100917.23;110820;1206;74715;-73
2021/09/11 09:19:22;;;;;;;10.50;7.20;;;;;;;20.87;75.50;100917.92;111075;1208;70974;-76
2021/09/11 09:21:51;;;;;;;9.10;6.50;;;;;;;20.82;75.25;100919.86;110649;1207;73563;-75
2021/09/11 09:24:32;;;;;;;7.70;6.80;;;;;;;20.83;75.76;100921.44;110751;1206;61822;-75
2021/09/11 09:27:02;;;;;;;6.40;4.70;;;;;;;20.85;75.13;100918.54;110785;1207;62056;-75
2021/09/11 09:29:30;;;;;;;9.50;7.30;;;;;;;20.87;74.91;100918.89;110815;1206;76517;-75
2021/09/11 09:31:59;;;;;;;8.50;6.50;;;;;;;20.94;74.70;100916.98;110783;1207;70951;-74
2021/09/11 09:34:44;;;;;;;7.70;6.40;;;;;;;21.03;74.24;100910.37;110784;1207;73572;-75
2021/09/11 09:37:17;;;;;;;9.70;6.00;;;;;;;21.15;73.86;100909.42;110839;1207;62452;-74
2021/09/11 09:39:47;;;;;;;11.00;6.80;;;;;;;21.28;73.29;100905.02;110840;1207;61837;-76
2021/09/11 09:42:16;;;;;;;7.50;5.50;;;;;;;21.46;73.35;100906.09;110793;1206;76004;-74
2021/09/11 09:44:46;;;;;;;11.00;6.80;;;;;;;21.64;72.42;100904.80;110812;1206;69634;-75
2021/09/11 09:47:14;;;;;;;7.10;4.80;;;;;;;21.82;71.79;100908.06;110825;1198;72936;-74
2021/09/11 09:49:41;;;;;;;5.60;4.50;;;;;;;21.96;71.11;100911.76;110827;1205;61956;-74
2021/09/11 09:52:09;;;;;;;8.30;4.70;;;;;;;22.06;70.69;100909.20;110725;1206;61800;-74
2021/09/11 09:54:36;;;;;;;7.10;5.30;;;;;;;22.15;70.44;100904.11;111930;1203;75077;-75
2021/09/11 09:57:06;;;;;;;7.60;6.40;;;;;;;22.30;69.08;100903.23;110521;1203;62242;-74
2021/09/11 09:59:36;;;;;;;8.70;6.30;;;;;;;22.48;67.58;100903.85;110610;1208;73475;-75
2021/09/11 10:02:05;;;;;;;8.70;6.90;;;;;;;22.58;67.32;100900.52;110554;1207;61803;-73
2021/09/11 10:04:34;;;;;;;9.40;7.20;;;;;;;22.73;67.52;100895.70;110708;1207;61897;-74
2021/09/11 10:07:03;;;;;;;7.70;6.50;;;;;;;22.90;66.67;100892.33;110651;1206;77151;-74
2021/09/11 10:09:30;;;;;;;8.80;6.20;;;;;;;22.88;65.83;100892.75;110874;1207;71117;-75
2021/09/11 10:11:57;;;;;;;10.00;6.70;;;;;;;22.88;65.90;100892.38;114280;1198;72413;-76
2021/09/11 10:14:32;;;;;;;9.20;7.70;;;;;;;22.88;65.82;100891.71;113412;1198;61772;-75
2021/09/11 10:17:05;;;;;;;9.40;7.50;;;;;;;23.02;65.35;100899.42;111563;1198;62653;-76
2021/09/11 10:19:36;;;;;;;11.90;8.40;;;;;;;23.11;63.81;100897.27;110605;1208;75468;-77
2021/09/11 10:22:16;;;;;;;9.10;7.00;;;;;;;23.25;61.73;100896.48;110631;1208;70015;-76
2021/09/11 10:24:48;;;;;;;8.90;7.30;;;;;;;23.22;59.93;100910.27;110575;1207;72709;-76
2021/09/11 10:27:24;;;;;;;9.50;6.70;;;;;;;23.07;59.69;100898.30;110569;1207;61895;-75
2021/09/11 10:29:53;;;;;;;8.20;6.60;;;;;;;22.96;60.55;100898.59;110484;1207;61948;-76
2021/09/11 10:32:24;;;;;;;9.90;7.40;;;;;;;22.90;61.25;100889.09;110654;1207;76284;-76
2021/09/11 10:34:54;;;;;;;7.70;6.90;;;;;;;22.92;61.57;100892.36;110626;1205;72148;-75
2021/09/11 10:37:30;;;;;;;9.40;7.90;;;;;;;22.91;61.73;100888.45;110605;1207;71568;-74
2021/09/11 10:40:29;;;;;;;8.40;7.10;;;;;;;23.01;62.72;100885.31;110564;1207;61817;-75
2021/09/11 10:42:58;;;;;;;8.20;6.70;;;;;;;23.16;62.28;100889.33;110590;1208;61897;-75
2021/09/11 10:45:57;;;;;;;8.50;6.30;;;;;;;23.26;61.81;100890.82;110842;1207;75327;-73
2021/09/11 10:48:48;;;;;;;7.60;5.90;;;;;;;23.21;60.12;100896.63;110551;1207;70953;-75
2021/09/11 10:51:30;;;;;;;9.00;5.70;;;;;;;23.14;60.84;100893.56;110523;1207;72594;-75
2021/09/11 10:54:00;;;;;;;10.00;7.00;;;;;;;23.06;61.46;100899.39;110643;1206;61873;-73
2021/09/11 10:56:46;;;;;;;9.80;7.90;;;;;;;22.92;61.51;100896.09;110778;1205;61883;-74
2021/09/11 10:59:23;;;;;;;8.00;7.20;;;;;;;22.87;61.78;100898.04;110476;1199;74446;-75
2021/09/11 11:02:07;;;;;;;9.70;7.00;;;;;;;22.73;61.60;100909.17;110499;1199;70925;-75
2021/09/11 11:04:34;;;;;;;9.70;7.80;;;;;;;22.52;61.91;100905.77;110521;1207;72580;-75
2021/09/11 11:07:07;;;;;;;8.10;6.20;;;;;;;22.49;62.99;100898.69;110706;1208;61909;-74
2021/09/11 11:09:35;;;;;;;7.70;5.70;;;;;;;22.54;62.54;100895.08;110773;1201;61942;-74
2021/09/11 11:12:03;;;;;;;8.80;6.70;;;;;;;22.68;62.80;100896.14;113668;1198;75336;-74
2021/09/11 11:14:32;;;;;;;8.00;6.10;;;;;;;22.94;62.64;100891.54;110813;1207;71926;-75